Terminal Aerodrome Forecast
Issued by NWS

Home | Current Version | Previous Version | Text Only | Print | Product List | Glossary On
Versions: 1 2 3 4 5 6 7 8 9 10 11 12 13 14 15 16 17 18 19 20 21 22 23 24 25 26 27
000
FTUS45 KLKN 271720
TAFTPH
TAF
KTPH 271720Z 2718/2818 33025G35KT P6SM SKC
      TEMPO 2720/2724 35032G45KT 6SM BLDU
     FM280600 34020G30KT P6SM FEW250=

USA.gov is the U.S. government's official web portal to all federal, state and local government web resources and services.